createdAt,value
2019-05-06T00:02:20.123Z,5.10
2019-05-06T00:04:57.207Z,5.20
2019-05-06T00:07:33.876Z,5.80
2019-05-06T00:10:05.786Z,5.33
2019-05-06T00:12:39.923Z,5.23
2019-05-06T00:15:15.517Z,5.90
2019-05-06T00:17:53.939Z,7.65
2019-05-06T00:20:28.818Z,21.67
2019-05-06T00:23:14.452Z,9.38
2019-05-06T00:26:08.650Z,5.92
2019-05-06T00:28:53.757Z,5.62
2019-05-06T00:31:25.611Z,6.03
2019-05-06T00:34:01.560Z,6.45
2019-05-06T00:36:36.446Z,6.17
2019-05-06T00:39:37.002Z,5.70
2019-05-06T00:42:31.065Z,6.03
2019-05-06T00:45:13.564Z,5.95
2019-05-06T00:47:53.591Z,11.28
2019-05-06T00:50:35.369Z,7.05
2019-05-06T00:53:14.080Z,6.53
2019-05-06T00:55:53.672Z,6.30
2019-05-06T00:58:29.021Z,6.00
2019-05-06T01:01:04.683Z,6.10
2019-05-06T01:03:46.240Z,6.10
2019-05-06T01:06:20.067Z,5.72
2019-05-06T01:08:57.260Z,5.77
2019-05-06T01:11:37.286Z,5.97
2019-05-06T01:14:20.402Z,5.90
2019-05-06T01:16:55.261Z,6.17
2019-05-06T01:19:36.556Z,6.20
2019-05-06T01:22:17.188Z,6.30
2019-05-06T01:24:58.944Z,6.80
2019-05-06T01:27:44.267Z,6.20
2019-05-06T01:30:19.196Z,6.17
2019-05-06T01:32:57.733Z,6.70
2019-05-06T01:35:36.112Z,6.53
2019-05-06T01:38:44.355Z,6.50
2019-05-06T01:41:33.867Z,6.50
2019-05-06T01:44:06.556Z,5.80
2019-05-06T01:49:10.179Z,6.27
2019-05-06T01:51:48.384Z,6.28
2019-05-06T01:54:21.935Z,6.85
2019-05-06T01:56:55.876Z,6.22
2019-05-06T01:59:29.191Z,6.37
2019-05-06T02:02:04.494Z,6.60
2019-05-06T02:04:41.141Z,6.60
2019-05-06T02:07:15.988Z,6.50
2019-05-06T02:09:54.912Z,7.00
2019-05-06T02:15:05.471Z,6.40
2019-05-06T02:17:41.245Z,6.70
2019-05-06T02:20:18.555Z,6.80
2019-05-06T02:23:01.025Z,7.30
2019-05-06T02:25:35.390Z,7.58
2019-05-06T02:28:04.023Z,6.70
2019-05-06T02:30:45.446Z,6.75
2019-05-06T02:33:24.659Z,7.30
2019-05-06T02:36:06.604Z,7.30
2019-05-06T02:38:45.983Z,7.80
2019-05-06T02:41:05.772Z,7.67
2019-05-06T02:43:34.894Z,7.45
2019-05-06T02:46:04.915Z,7.80
2019-05-06T02:51:25.044Z,7.22
2019-05-06T02:53:54.571Z,7.45
2019-05-06T02:58:53.422Z,7.70
2019-05-06T03:01:23.493Z,8.38
2019-05-06T03:03:53.548Z,8.05
2019-05-06T03:06:23.961Z,7.85
2019-05-06T03:08:54.283Z,7.67
2019-05-06T03:11:24.038Z,8.20
2019-05-06T03:13:53.732Z,7.72
2019-05-06T03:16:23.883Z,8.10
2019-05-06T03:18:53.090Z,7.90
2019-05-06T03:21:44.791Z,7.60
2019-05-06T03:24:47.359Z,7.87
2019-05-06T03:27:16.472Z,8.35
2019-05-06T03:29:47.170Z,7.35
2019-05-06T03:32:25.218Z,8.20
2019-05-06T03:35:13.821Z,7.53
2019-05-06T03:37:23.700Z,7.10
2019-05-06T03:39:52.874Z,7.70
2019-05-06T03:42:23.315Z,8.07
2019-05-06T03:44:56.216Z,7.50
2019-05-06T03:47:34.454Z,7.70
2019-05-06T03:50:05.117Z,7.33
2019-05-06T03:52:34.419Z,7.30
2019-05-06T03:55:03.575Z,8.00
2019-05-06T04:00:04.707Z,7.60
2019-05-06T04:02:33.656Z,8.73
2019-05-06T04:05:03.924Z,7.40
2019-05-06T04:07:34.018Z,7.77
2019-05-06T04:10:03.592Z,7.35
2019-05-06T04:15:03.883Z,7.80
2019-05-06T04:17:57.970Z,7.53
2019-05-06T04:20:34.300Z,7.62
2019-05-06T04:23:19.537Z,7.50
2019-05-06T04:25:56.325Z,7.12
2019-05-06T04:30:57.070Z,7.22
2019-05-06T04:33:27.074Z,6.80
2019-05-06T04:35:57.462Z,6.90
2019-05-06T04:38:26.372Z,6.53
2019-05-06T04:40:55.738Z,6.45
2019-05-06T04:43:26.902Z,6.90
2019-05-06T04:45:55.314Z,6.00
2019-05-06T04:48:24.279Z,7.30
2019-05-06T04:50:53.576Z,6.47
2019-05-06T04:53:26.524Z,6.15
2019-05-06T04:55:54.138Z,6.45
2019-05-06T04:58:23.669Z,6.60
2019-05-06T05:00:53.393Z,5.70
2019-05-06T05:03:23.031Z,5.50
2019-05-06T05:06:05.863Z,6.08
2019-05-06T05:08:42.579Z,6.60
2019-05-06T05:11:29.965Z,6.60
2019-05-06T05:14:13.442Z,6.17
2019-05-06T05:17:22.332Z,6.40
2019-05-06T05:22:21.869Z,5.90
2019-05-06T05:24:52.154Z,6.22
2019-05-06T05:29:52.245Z,6.10
2019-05-06T05:32:22.530Z,6.10
2019-05-06T05:34:52.339Z,5.35
2019-05-06T05:37:22.744Z,5.80
2019-05-06T05:39:52.341Z,5.60
2019-05-06T05:42:37.778Z,5.30
2019-05-06T05:45:08.298Z,6.40
2019-05-06T05:50:23.381Z,5.60
2019-05-06T05:55:22.178Z,5.70
2019-05-06T05:57:51.914Z,5.70
2019-05-06T06:02:53.002Z,6.30
2019-05-06T06:05:21.872Z,5.33
2019-05-06T06:10:45.856Z,5.50
2019-05-06T06:13:14.914Z,5.28
2019-05-06T06:16:23.237Z,5.40
2019-05-06T06:19:12.699Z,5.40
2019-05-06T06:21:46.943Z,5.22
2019-05-06T06:24:23.472Z,5.53
2019-05-06T06:26:52.837Z,6.03
2019-05-06T06:29:22.800Z,5.15
2019-05-06T06:32:07.251Z,5.92
2019-05-06T06:35:08.296Z,4.90
2019-05-06T06:37:49.081Z,5.30
2019-05-06T06:40:19.728Z,5.65
2019-05-06T06:42:52.462Z,5.50
2019-05-06T06:45:22.921Z,6.00
2019-05-06T06:47:52.053Z,5.78
2019-05-06T06:50:22.083Z,5.80
2019-05-06T06:55:22.521Z,5.75
2019-05-06T06:58:07.984Z,20.52
2019-05-06T07:01:16.719Z,9.53
2019-05-06T07:03:56.583Z,5.15
2019-05-06T07:06:33.172Z,5.70
2019-05-06T07:09:03.024Z,5.10
2019-05-06T07:11:33.159Z,4.60
2019-05-06T07:14:04.366Z,5.10
2019-05-06T07:16:33.105Z,4.47
2019-05-06T07:19:03.086Z,4.60
2019-05-06T07:21:40.076Z,4.90
2019-05-06T07:24:09.914Z,4.75
2019-05-06T07:26:48.342Z,4.37
2019-05-06T07:29:23.609Z,9.23
2019-05-06T07:34:16.102Z,4.87
2019-05-06T07:36:45.953Z,4.62
2019-05-06T07:39:15.854Z,5.00
2019-05-06T07:42:03.031Z,4.60
2019-05-06T07:44:56.190Z,5.00
2019-05-06T07:47:33.186Z,4.80
2019-05-06T07:50:02.389Z,5.00
2019-05-06T07:52:32.554Z,5.90
2019-05-06T07:57:29.736Z,4.60
2019-05-06T07:59:59.328Z,3.95
2019-05-06T08:02:27.689Z,3.70
2019-05-06T08:04:56.415Z,3.40
2019-05-06T08:07:25.892Z,3.60
2019-05-06T08:09:54.895Z,3.40
2019-05-06T08:12:24.233Z,3.30
2019-05-06T08:14:52.817Z,3.05
2019-05-06T08:17:33.106Z,3.60
2019-05-06T08:20:02.490Z,3.70
2019-05-06T08:22:56.484Z,3.27
2019-05-06T08:25:23.855Z,3.50
2019-05-06T08:27:53.197Z,3.20
2019-05-06T08:30:23.617Z,3.42
2019-05-06T08:32:52.913Z,3.15
2019-05-06T08:35:22.737Z,3.10
2019-05-06T08:37:53.076Z,3.10
2019-05-06T08:40:22.686Z,3.40
2019-05-06T08:42:53.040Z,3.05
2019-05-06T08:45:22.053Z,3.00
2019-05-06T08:50:32.504Z,3.02
2019-05-06T08:53:32.896Z,2.70
2019-05-06T08:56:02.025Z,3.50
2019-05-06T08:58:46.961Z,2.72
2019-05-06T09:04:12.227Z,3.00
2019-05-06T09:06:35.461Z,2.40
2019-05-06T09:09:05.546Z,2.42
2019-05-06T09:11:34.236Z,2.22
2019-05-06T09:14:03.510Z,2.10
2019-05-06T09:19:04.042Z,2.00
2019-05-06T09:21:30.449Z,2.30
2019-05-06T09:26:34.528Z,2.15
2019-05-06T09:29:23.075Z,2.22
2019-05-06T09:31:53.053Z,2.25
2019-05-06T09:34:40.162Z,1.83
2019-05-06T09:37:13.857Z,2.17
2019-05-06T09:39:43.351Z,2.00
2019-05-06T09:44:42.510Z,2.13
2019-05-06T09:47:13.256Z,2.37
2019-05-06T09:49:42.557Z,2.20
2019-05-06T09:52:12.946Z,1.95
2019-05-06T09:55:03.566Z,2.00
2019-05-06T09:57:33.995Z,2.30
2019-05-06T10:00:04.654Z,2.20
2019-05-06T10:02:32.920Z,2.10
2019-05-06T10:05:03.583Z,2.20
2019-05-06T10:10:00.683Z,2.45
2019-05-06T10:12:28.800Z,2.45
2019-05-06T10:14:57.276Z,2.50
2019-05-06T10:17:25.448Z,2.50
2019-05-06T10:19:53.822Z,2.27
2019-05-06T10:22:23.376Z,2.20
2019-05-06T10:24:52.296Z,2.00
2019-05-06T10:27:22.608Z,2.90
2019-05-06T10:30:03.323Z,2.20
2019-05-06T10:35:08.269Z,2.07
2019-05-06T10:40:29.493Z,1.62
2019-05-06T10:43:02.766Z,1.70
2019-05-06T10:45:33.003Z,1.90
2019-05-06T10:48:02.382Z,1.90
2019-05-06T10:50:33.920Z,2.00
2019-05-06T10:53:17.774Z,2.15
2019-05-06T10:58:18.733Z,2.40
2019-05-06T11:00:47.780Z,2.83
2019-05-06T11:05:46.505Z,2.12
2019-05-06T11:08:15.507Z,4.22
2019-05-06T11:10:45.425Z,2.90
2019-05-06T11:13:13.933Z,2.30
2019-05-06T11:15:43.369Z,2.80
2019-05-06T11:20:43.720Z,2.50
2019-05-06T11:23:13.928Z,2.30
2019-05-06T11:28:27.569Z,1.60
2019-05-06T11:33:42.537Z,1.95
2019-05-06T11:38:48.444Z,1.75
2019-05-06T11:41:15.776Z,1.70
2019-05-06T11:46:12.430Z,1.70
2019-05-06T11:48:42.914Z,1.83
2019-05-06T11:53:40.851Z,1.70
2019-05-06T11:56:09.019Z,1.72
2019-05-06T11:58:43.344Z,1.80
2019-05-06T12:03:45.525Z,1.90
2019-05-06T12:06:14.427Z,2.00
2019-05-06T12:11:12.558Z,1.98
2019-05-06T12:13:42.516Z,1.80
2019-05-06T12:16:14.105Z,1.85
2019-05-06T12:18:43.024Z,2.10
2019-05-06T12:21:16.127Z,2.20
2019-05-06T12:23:44.873Z,1.90
2019-05-06T12:26:13.025Z,2.10
2019-05-06T12:31:12.835Z,1.90
2019-05-06T12:33:45.016Z,2.40
2019-05-06T12:36:21.441Z,1.40
2019-05-06T12:39:08.102Z,1.40
2019-05-06T12:44:17.054Z,1.57
2019-05-06T12:47:04.042Z,1.40
2019-05-06T12:49:32.698Z,1.40
2019-05-06T12:52:00.752Z,1.50
2019-05-06T12:54:29.355Z,1.52
2019-05-06T12:56:59.886Z,1.50
2019-05-06T12:59:28.562Z,1.60
2019-05-06T13:04:44.357Z,1.98
2019-05-06T13:06:54.527Z,28.55
2019-05-06T13:09:22.784Z,2.65
2019-05-06T13:11:52.397Z,3.12
2019-05-06T13:16:48.837Z,3.98
2019-05-06T13:19:17.129Z,1.90
2019-05-06T13:24:13.801Z,1.15
2019-05-06T13:26:43.128Z,1.25
2019-05-06T13:29:17.628Z,1.30
2019-05-06T13:31:46.735Z,1.17
2019-05-06T13:34:17.228Z,1.22
2019-05-06T13:36:45.451Z,1.10
2019-05-06T13:39:15.238Z,1.40
2019-05-06T13:41:43.383Z,1.40
2019-05-06T13:44:19.235Z,1.57
2019-05-06T13:46:49.287Z,1.70
2019-05-06T13:49:33.253Z,1.60
2019-05-06T13:52:04.455Z,1.50
2019-05-06T13:54:33.452Z,2.03
2019-05-06T13:57:02.949Z,1.75
2019-05-06T13:59:34.499Z,1.80
2019-05-06T14:02:08.912Z,1.87
2019-05-06T14:04:37.007Z,4.83
2019-05-06T14:09:39.632Z,2.15
2019-05-06T14:12:03.182Z,15.25
2019-05-06T14:16:59.090Z,2.10
2019-05-06T14:19:27.709Z,2.12
2019-05-06T14:24:24.376Z,1.50
2019-05-06T14:27:02.395Z,1.70
2019-05-06T14:29:42.630Z,1.60
2019-05-06T14:32:12.266Z,1.37
2019-05-06T14:34:40.507Z,1.40
2019-05-06T14:37:08.739Z,1.80
2019-05-06T14:39:52.229Z,1.60
2019-05-06T14:42:08.938Z,1.80
2019-05-06T14:44:36.951Z,1.90
2019-05-06T14:47:12.747Z,1.72
2019-05-06T14:54:49.164Z,1.73
2019-05-06T14:57:17.570Z,3.22
2019-05-06T14:59:45.884Z,2.50
2019-05-06T15:02:14.290Z,1.80
2019-05-06T15:04:43.455Z,2.10
2019-05-06T15:07:12.666Z,1.92
2019-05-06T15:09:55.884Z,1.92
2019-05-06T15:12:12.789Z,1.70
2019-05-06T15:17:08.270Z,2.27
2019-05-06T15:19:36.534Z,4.60
2019-05-06T15:24:33.032Z,1.62
2019-05-06T15:27:02.695Z,2.10
2019-05-06T15:29:30.698Z,1.85
2019-05-06T15:32:17.990Z,1.60
2019-05-06T15:34:58.243Z,1.70
2019-05-06T15:37:33.924Z,1.60
2019-05-06T15:40:03.023Z,2.10
2019-05-06T15:42:31.336Z,1.70
2019-05-06T15:44:59.410Z,1.57
2019-05-06T15:47:27.717Z,1.87
2019-05-06T15:49:55.722Z,1.37
2019-05-06T15:54:52.520Z,2.20
2019-05-06T15:57:22.845Z,1.90
2019-05-06T15:59:52.923Z,1.77
2019-05-06T16:02:23.302Z,1.80
2019-05-06T16:04:52.205Z,1.67
2019-05-06T16:07:25.536Z,2.17
2019-05-06T16:09:55.065Z,3.77
2019-05-06T16:14:48.929Z,2.10
2019-05-06T16:17:17.551Z,2.30
2019-05-06T16:22:14.269Z,2.12
2019-05-06T16:24:47.203Z,1.93
2019-05-06T16:27:15.172Z,2.00
2019-05-06T16:29:43.430Z,1.90
2019-05-06T16:32:12.266Z,2.00
2019-05-06T16:34:40.269Z,1.70
2019-05-06T16:37:08.251Z,1.62
2019-05-06T16:39:36.655Z,1.70
2019-05-06T16:42:04.732Z,2.70
2019-05-06T16:44:32.808Z,1.92
2019-05-06T16:49:30.068Z,1.77
2019-05-06T16:51:58.065Z,2.00
2019-05-06T16:56:59.339Z,1.93
2019-05-06T16:59:27.333Z,1.90
2019-05-06T17:01:55.674Z,2.30
2019-05-06T17:04:42.675Z,1.92
2019-05-06T17:07:11.861Z,1.70
2019-05-06T17:09:42.829Z,2.87
2019-05-06T17:12:12.667Z,2.35
2019-05-06T17:14:42.841Z,1.70
2019-05-06T17:17:11.361Z,1.60
2019-05-06T17:19:42.078Z,2.10
2019-05-06T17:24:38.647Z,2.10
2019-05-06T17:27:06.921Z,2.10
2019-05-06T17:29:54.463Z,2.40
2019-05-06T17:35:12.729Z,3.87
2019-05-06T17:40:27.499Z,2.50
2019-05-06T17:42:56.373Z,2.85
2019-05-06T17:45:44.605Z,2.40
2019-05-06T17:48:23.290Z,2.47
2019-05-06T17:51:19.208Z,3.10
2019-05-06T17:56:18.043Z,3.42
2019-05-06T17:58:46.256Z,2.55
2019-05-06T18:03:44.740Z,2.00
2019-05-06T18:06:14.268Z,2.10
2019-05-06T18:08:43.273Z,2.02
2019-05-06T18:11:12.901Z,2.00
2019-05-06T18:16:09.179Z,2.40
2019-05-06T18:18:37.281Z,2.10
2019-05-06T18:23:33.564Z,2.55
2019-05-06T18:26:03.853Z,2.80
2019-05-06T18:31:00.125Z,2.30
2019-05-06T18:33:28.106Z,2.92
2019-05-06T18:38:24.446Z,2.33
2019-05-06T18:40:54.437Z,2.40
2019-05-06T18:43:22.904Z,2.27
2019-05-06T18:45:52.125Z,2.33
2019-05-06T18:48:21.841Z,2.20
2019-05-06T18:53:17.836Z,2.30
2019-05-06T18:55:46.045Z,2.00
2019-05-06T19:00:43.646Z,2.60
2019-05-06T19:03:12.191Z,2.67
2019-05-06T19:05:42.711Z,2.30
2019-05-06T19:08:27.767Z,2.20
2019-05-06T19:10:56.602Z,2.50
2019-05-06T19:13:26.357Z,2.30
2019-05-06T19:15:54.589Z,3.10
2019-05-06T19:18:22.550Z,2.50
2019-05-06T19:20:50.520Z,3.10
2019-05-06T19:25:46.766Z,2.40
2019-05-06T19:28:15.060Z,2.55
2019-05-06T19:33:12.353Z,2.53
2019-05-06T19:35:42.729Z,2.58
2019-05-06T19:40:38.739Z,2.90
2019-05-06T19:43:06.670Z,3.10
2019-05-06T19:45:34.829Z,2.80
2019-05-06T19:48:03.114Z,2.90
2019-05-06T19:50:33.064Z,2.90
2019-05-06T19:53:01.085Z,2.70
2019-05-06T19:55:29.079Z,3.05
2019-05-06T19:57:57.053Z,2.90
2019-05-06T20:00:25.034Z,2.60
2019-05-06T20:02:52.970Z,3.10
2019-05-06T20:05:36.252Z,2.90
2019-05-06T20:08:14.735Z,3.10
2019-05-06T20:11:04.934Z,3.00
2019-05-06T20:13:34.828Z,3.00
2019-05-06T20:16:03.422Z,3.00
2019-05-06T20:18:32.871Z,3.05
2019-05-06T20:23:29.730Z,3.10
2019-05-06T20:25:57.945Z,3.60
2019-05-06T20:30:54.092Z,3.10
2019-05-06T20:33:22.158Z,2.83
2019-05-06T20:35:52.587Z,3.40
2019-05-06T20:38:23.097Z,3.10
2019-05-06T20:40:50.623Z,3.20
2019-05-06T20:43:23.126Z,3.15
2019-05-06T20:45:48.217Z,3.12
2019-05-06T20:50:44.489Z,3.10
2019-05-06T20:53:12.713Z,3.10
2019-05-06T20:55:43.143Z,3.40
2019-05-06T20:58:12.188Z,3.30
2019-05-06T21:00:43.010Z,3.00
2019-05-06T21:03:12.271Z,3.10
2019-05-06T21:05:40.425Z,3.12
2019-05-06T21:10:36.968Z,3.20
2019-05-06T21:13:05.252Z,2.98
2019-05-06T21:15:33.614Z,2.80
2019-05-06T21:18:04.315Z,3.20
2019-05-06T21:20:36.375Z,3.35
2019-05-06T21:23:04.807Z,3.42
2019-05-06T21:25:33.132Z,3.45
2019-05-06T21:28:02.822Z,2.92
2019-05-06T21:32:59.346Z,3.27
2019-05-06T21:35:27.354Z,3.60
2019-05-06T21:40:23.706Z,3.30
2019-05-06T21:42:51.940Z,3.50
2019-05-06T21:45:22.167Z,3.77
2019-05-06T21:47:50.287Z,3.58
2019-05-06T21:50:18.245Z,3.80
2019-05-06T21:55:19.987Z,4.10
2019-05-06T21:57:56.004Z,4.00
2019-05-06T22:00:38.820Z,4.00
2019-05-06T22:03:07.202Z,4.30
2019-05-06T22:05:35.195Z,3.83
2019-05-06T22:10:37.292Z,4.30
2019-05-06T22:13:05.677Z,3.83
2019-05-06T22:15:35.793Z,3.87
2019-05-06T22:18:04.025Z,4.30
2019-05-06T22:20:35.594Z,4.30
2019-05-06T22:23:03.635Z,4.40
2019-05-06T22:25:34.742Z,4.50
2019-05-06T22:28:05.843Z,4.10
2019-05-06T22:30:35.737Z,6.20
2019-05-06T22:33:12.558Z,4.47
2019-05-06T22:35:47.683Z,4.30
2019-05-06T22:38:21.835Z,4.65
2019-05-06T22:40:55.164Z,4.53
2019-05-06T22:43:24.082Z,4.55
2019-05-06T22:45:57.338Z,5.00
2019-05-06T22:48:32.336Z,4.50
2019-05-06T22:51:02.682Z,4.90
2019-05-06T22:53:32.832Z,4.90
2019-05-06T22:56:04.539Z,4.87
2019-05-06T23:01:04.460Z,4.70
2019-05-06T23:03:31.717Z,4.80
2019-05-06T23:06:02.545Z,5.20
2019-05-06T23:08:32.941Z,4.87
2019-05-06T23:11:07.194Z,4.40
2019-05-06T23:16:05.779Z,4.40
2019-05-06T23:18:37.823Z,5.10
2019-05-06T23:23:39.196Z,4.60
2019-05-06T23:26:22.788Z,4.45
2019-05-06T23:28:52.661Z,4.70
2019-05-06T23:31:24.309Z,4.78
2019-05-06T23:33:53.365Z,4.55
2019-05-06T23:36:28.746Z,4.80
2019-05-06T23:39:13.433Z,4.72
2019-05-06T23:44:46.672Z,4.10
2019-05-06T23:47:32.931Z,4.60
2019-05-06T23:50:19.443Z,4.20
2019-05-06T23:53:07.618Z,4.30
2019-05-06T23:58:23.650Z,4.20
